Boraciia, Brazil
Current Conditions -  °F | °C
As of 11:25 PM on Monday 24 Nov 2014 (Local Time) from SBBU Reporting Station
Thunderstorm Thunderstorm  
Wind Chill: 72°   Ceiling: 700
Heat Index: 72°   Visibility: 1.2mi
Dew Point: 72°   Wind: 12mph
Humidity: 100%   Direction: 120°ESE
Pressure: 30"   Gusts: NA
Location:  22.17°S, 48.75°W
Report Text: SBBU 250125Z 12010KT 2000 +TSRA BR BKN007 BKN030 FEW035CB OVC10 022/22 Q1016
Loading
Personal Weather Stations






























Interactive Weather Map New forecast layout! Learn more

10-Day Weather Forecast

Advertisements
Track Severe Weather on mobile